createdAt,value
2023-02-22T00:01:35.872Z,21.05
2023-02-22T00:04:05.724Z,23.33
2023-02-22T00:06:33.379Z,23.05
2023-02-22T00:09:02.330Z,18.98
2023-02-22T00:11:31.653Z,21.45
2023-02-22T00:13:58.605Z,23.95
2023-02-22T00:16:26.533Z,18.38
2023-02-22T00:18:54.415Z,21.90
2023-02-22T00:21:21.851Z,20.33
2023-02-22T00:23:48.838Z,19.38
2023-02-22T00:26:19.310Z,20.20
2023-02-22T00:28:52.946Z,24.25
2023-02-22T00:31:20.919Z,24.17
2023-02-22T00:33:47.945Z,22.35
2023-02-22T00:36:14.695Z,20.08
2023-02-22T00:38:42.105Z,24.48
2023-02-22T00:41:09.152Z,21.85
2023-02-22T00:43:36.033Z,21.45
2023-02-22T00:46:02.948Z,27.13
2023-02-22T00:48:29.642Z,21.05
2023-02-22T00:50:56.279Z,22.88
2023-02-22T00:53:25.224Z,23.35
2023-02-22T00:55:52.608Z,19.05
2023-02-22T00:58:19.780Z,24.10
2023-02-22T01:00:47.143Z,25.52
2023-02-22T01:03:17.617Z,24.33
2023-02-22T01:05:46.642Z,23.73
2023-02-22T01:08:15.770Z,27.08
2023-02-22T01:10:44.024Z,26.02
2023-02-22T01:13:12.835Z,28.25
2023-02-22T01:15:42.048Z,31.48
2023-02-22T01:18:09.079Z,27.42
2023-02-22T01:20:35.943Z,28.42
2023-02-22T01:23:06.844Z,30.33
2023-02-22T01:25:34.570Z,30.58
2023-02-22T01:28:02.383Z,28.10
2023-02-22T01:30:33.022Z,34.90
2023-02-22T01:33:01.776Z,30.17
2023-02-22T01:35:33.925Z,35.45
2023-02-22T01:38:00.857Z,33.50
2023-02-22T01:40:35.075Z,37.40
2023-02-22T01:43:05.311Z,39.00
2023-02-22T01:45:34.897Z,37.17
2023-02-22T01:48:09.358Z,38.35
2023-02-22T01:50:45.078Z,35.92
2023-02-22T01:53:16.343Z,39.47
2023-02-22T01:55:44.685Z,45.28
2023-02-22T01:58:12.682Z,43.80
2023-02-22T02:00:40.055Z,44.63
2023-02-22T02:03:11.922Z,52.05
2023-02-22T02:05:39.233Z,48.65
2023-02-22T02:08:21.731Z,48.13
2023-02-22T02:10:49.302Z,55.58
2023-02-22T02:13:16.263Z,62.85
2023-02-22T02:15:43.102Z,53.38
2023-02-22T02:18:12.790Z,60.83
2023-02-22T02:20:53.773Z,54.40
2023-02-22T02:23:41.049Z,63.47
2023-02-22T02:29:33.241Z,57.03
2023-02-22T02:32:08.794Z,56.25
2023-02-22T02:34:58.807Z,49.38
2023-02-22T02:37:48.532Z,55.85
2023-02-22T02:40:42.196Z,49.13
2023-02-22T02:43:31.407Z,57.90
2023-02-22T02:46:45.701Z,50.72
2023-02-22T02:49:19.269Z,51.38
2023-02-22T02:51:52.348Z,48.90
2023-02-22T02:54:21.135Z,56.58
2023-02-22T02:56:48.254Z,50.75
2023-02-22T02:59:27.799Z,56.38
2023-02-22T03:02:34.177Z,54.58
2023-02-22T03:05:03.649Z,60.72
2023-02-22T03:07:45.115Z,65.15
2023-02-22T03:10:50.472Z,56.03
2023-02-22T03:13:17.013Z,54.03
2023-02-22T03:15:52.799Z,51.83
2023-02-22T03:18:32.325Z,50.78
2023-02-22T03:21:27.475Z,57.22
2023-02-22T03:24:06.560Z,54.67
2023-02-22T03:26:56.976Z,49.25
2023-02-22T03:29:26.348Z,55.95
2023-02-22T03:32:01.826Z,59.88
2023-02-22T03:34:53.164Z,64.20
2023-02-22T03:37:25.757Z,54.85
2023-02-22T03:39:54.889Z,59.28
2023-02-22T03:42:31.401Z,63.63
2023-02-22T03:45:05.150Z,62.08
2023-02-22T03:47:45.886Z,60.10
2023-02-22T03:50:22.267Z,63.65
2023-02-22T03:52:50.031Z,61.17
2023-02-22T03:55:17.882Z,53.40
2023-02-22T03:57:57.542Z,61.25
2023-02-22T04:00:33.838Z,52.95
2023-02-22T04:03:00.849Z,57.97
2023-02-22T04:05:27.667Z,53.05
2023-02-22T04:07:56.050Z,60.03
2023-02-22T04:10:41.396Z,60.42
2023-02-22T04:13:08.224Z,54.63
2023-02-22T04:15:34.904Z,57.25
2023-02-22T04:18:01.671Z,59.75
2023-02-22T04:20:28.434Z,56.33
2023-02-22T04:22:57.307Z,60.33
2023-02-22T04:25:24.630Z,60.22
2023-02-22T04:27:51.698Z,62.20
2023-02-22T04:30:20.379Z,58.95
2023-02-22T04:32:48.223Z,61.28
2023-02-22T04:35:15.273Z,67.20
2023-02-22T04:37:42.060Z,65.80
2023-02-22T04:40:09.349Z,60.92
2023-02-22T04:42:36.919Z,61.88
2023-02-22T04:45:06.040Z,65.15
2023-02-22T04:47:32.783Z,70.18
2023-02-22T04:50:00.459Z,66.35
2023-02-22T04:52:27.867Z,60.05
2023-02-22T04:54:54.519Z,61.92
2023-02-22T04:57:22.213Z,57.45
2023-02-22T04:59:48.849Z,70.07
2023-02-22T05:02:17.535Z,64.03
2023-02-22T05:04:45.121Z,63.90
2023-02-22T05:07:12.288Z,66.57
2023-02-22T05:09:39.090Z,70.45
2023-02-22T05:12:06.167Z,61.78
2023-02-22T05:14:33.416Z,64.75
2023-02-22T05:17:00.791Z,68.47
2023-02-22T05:19:27.600Z,70.22
2023-02-22T05:21:54.271Z,65.40
2023-02-22T05:24:21.056Z,68.55
2023-02-22T05:26:47.755Z,66.68
2023-02-22T05:29:14.578Z,66.75
2023-02-22T05:31:42.066Z,65.05
2023-02-22T05:34:08.976Z,65.80
2023-02-22T05:36:35.612Z,69.50
2023-02-22T05:39:02.403Z,60.67
2023-02-22T05:41:29.306Z,70.82
2023-02-22T05:43:55.928Z,71.60
2023-02-22T05:46:23.897Z,70.85
2023-02-22T05:48:53.430Z,70.38
2023-02-22T05:51:20.264Z,65.88
2023-02-22T05:53:49.542Z,62.70
2023-02-22T05:56:21.933Z,74.82
2023-02-22T05:58:48.847Z,72.15
2023-02-22T06:01:15.907Z,66.88
2023-02-22T06:03:46.216Z,72.78
2023-02-22T06:06:12.850Z,75.05
2023-02-22T06:08:40.698Z,75.35
2023-02-22T06:11:08.986Z,75.35
2023-02-22T06:13:36.810Z,68.72
2023-02-22T06:16:05.293Z,73.95
2023-02-22T06:18:32.623Z,78.78
2023-02-22T06:21:00.311Z,69.22
2023-02-22T06:23:27.186Z,72.20
2023-02-22T06:25:56.147Z,71.13
2023-02-22T06:28:23.888Z,69.97
2023-02-22T06:30:50.661Z,74.25
2023-02-22T06:33:17.434Z,89.45
2023-02-22T06:35:45.297Z,82.25
2023-02-22T06:38:12.074Z,90.88
2023-02-22T06:40:38.854Z,94.45
2023-02-22T06:43:05.569Z,90.43
2023-02-22T06:45:32.324Z,90.88
2023-02-22T06:47:58.966Z,86.38
2023-02-22T06:50:30.623Z,94.57
2023-02-22T06:52:58.643Z,83.60
2023-02-22T06:55:30.866Z,87.45
2023-02-22T06:57:57.666Z,88.80
2023-02-22T07:00:26.196Z,88.35
2023-02-22T07:02:54.105Z,88.78
2023-02-22T07:05:22.421Z,77.63
2023-02-22T07:07:51.040Z,87.82
2023-02-22T07:10:22.961Z,81.65
2023-02-22T07:12:49.764Z,76.30
2023-02-22T07:15:18.289Z,82.20
2023-02-22T07:17:45.321Z,83.47
2023-02-22T07:20:11.966Z,82.88
2023-02-22T07:22:40.022Z,86.25
2023-02-22T07:25:09.989Z,86.20
2023-02-22T07:27:38.446Z,82.32
2023-02-22T07:30:16.141Z,76.38
2023-02-22T07:32:44.059Z,76.90
2023-02-22T07:35:18.443Z,75.30
2023-02-22T07:37:46.776Z,70.72
2023-02-22T07:40:13.618Z,77.68
2023-02-22T07:43:02.643Z,78.47
2023-02-22T07:45:32.208Z,72.63
2023-02-22T07:48:00.385Z,74.22
2023-02-22T07:50:30.833Z,79.70
2023-02-22T07:52:59.683Z,77.63
2023-02-22T07:55:28.782Z,74.82
2023-02-22T07:57:59.448Z,67.80
2023-02-22T08:00:32.054Z,78.85
2023-02-22T08:03:02.938Z,64.15
2023-02-22T08:05:30.729Z,69.28
2023-02-22T08:07:58.185Z,68.20
2023-02-22T08:10:26.709Z,69.70
2023-02-22T08:12:54.523Z,64.93
2023-02-22T08:15:30.668Z,66.93
2023-02-22T08:17:58.970Z,60.45
2023-02-22T08:20:26.385Z,59.30
2023-02-22T08:22:54.166Z,55.22
2023-02-22T08:25:25.331Z,58.53
2023-02-22T08:27:52.379Z,58.53
2023-02-22T08:30:22.103Z,55.72
2023-02-22T08:32:50.119Z,61.42
2023-02-22T08:35:18.934Z,46.83
2023-02-22T08:37:49.066Z,64.47
2023-02-22T08:40:19.575Z,64.60
2023-02-22T08:42:46.246Z,55.08
2023-02-22T08:45:14.054Z,56.60
2023-02-22T08:47:41.645Z,64.57
2023-02-22T08:50:09.274Z,59.60
2023-02-22T08:52:35.986Z,53.95
2023-02-22T08:55:02.739Z,56.30
2023-02-22T08:57:29.430Z,48.10
2023-02-22T08:59:57.125Z,49.88
2023-02-22T09:02:25.078Z,49.08
2023-02-22T09:04:51.988Z,48.70
2023-02-22T09:07:19.720Z,50.03
2023-02-22T09:09:46.356Z,44.25
2023-02-22T09:12:13.467Z,47.30
2023-02-22T09:14:40.175Z,35.85
2023-02-22T09:17:06.832Z,38.40
2023-02-22T09:19:33.488Z,39.35
2023-02-22T09:22:01.354Z,37.58
2023-02-22T09:24:28.352Z,41.58
2023-02-22T09:26:55.150Z,40.92
2023-02-22T09:29:23.353Z,35.78
2023-02-22T09:31:51.945Z,37.22
2023-02-22T09:34:20.289Z,34.20
2023-02-22T09:36:47.795Z,34.28
2023-02-22T09:39:16.975Z,38.88
2023-02-22T09:41:50.105Z,36.28
2023-02-22T09:44:22.603Z,39.38
2023-02-22T09:46:51.094Z,33.80
2023-02-22T09:49:29.880Z,36.92
2023-02-22T09:52:07.526Z,33.90
2023-02-22T09:54:34.439Z,36.00
2023-02-22T09:57:06.136Z,32.47
2023-02-22T09:59:48.639Z,37.20
2023-02-22T10:02:35.230Z,36.72
2023-02-22T10:05:18.006Z,33.85
2023-02-22T10:07:54.350Z,32.20
2023-02-22T10:10:24.967Z,34.42
2023-02-22T10:13:10.029Z,38.92
2023-02-22T10:15:42.714Z,39.03
2023-02-22T10:18:48.144Z,39.03
2023-02-22T10:21:17.981Z,34.95
2023-02-22T10:23:54.818Z,38.83
2023-02-22T10:26:26.999Z,39.88
2023-02-22T10:28:56.718Z,37.70
2023-02-22T10:31:38.732Z,34.38
2023-02-22T10:34:12.886Z,34.75
2023-02-22T10:36:43.538Z,34.60
2023-02-22T10:39:31.863Z,37.90
2023-02-22T10:42:06.137Z,38.05
2023-02-22T10:44:37.614Z,37.08
2023-02-22T10:47:10.758Z,37.88
2023-02-22T10:49:59.220Z,34.63
2023-02-22T10:52:29.557Z,38.00
2023-02-22T10:55:13.784Z,34.05
2023-02-22T10:57:42.440Z,38.83
2023-02-22T11:00:32.183Z,36.10
2023-02-22T11:03:20.071Z,33.28
2023-02-22T11:05:47.230Z,35.08
2023-02-22T11:08:21.541Z,38.38
2023-02-22T11:10:50.482Z,33.08
2023-02-22T11:13:33.477Z,31.73
2023-02-22T11:16:17.608Z,36.67
2023-02-22T11:18:44.641Z,33.25
2023-02-22T11:21:14.009Z,30.70
2023-02-22T11:23:45.189Z,34.67
2023-02-22T11:26:20.629Z,33.58
2023-02-22T11:28:50.907Z,38.25
2023-02-22T11:31:17.982Z,31.02
2023-02-22T11:36:33.501Z,28.70
2023-02-22T11:39:01.069Z,27.38
2023-02-22T11:41:30.280Z,30.73
2023-02-22T11:44:15.140Z,35.85
2023-02-22T11:46:44.334Z,30.63
2023-02-22T11:49:14.192Z,27.27
2023-02-22T11:51:47.464Z,27.85
2023-02-22T11:54:32.948Z,30.85
2023-02-22T11:57:22.484Z,31.42
2023-02-22T12:00:01.032Z,33.47
2023-02-22T12:02:37.483Z,23.58
2023-02-22T12:05:20.418Z,27.00
2023-02-22T12:08:17.503Z,24.30
2023-02-22T12:11:10.215Z,28.65
2023-02-22T12:14:02.769Z,31.73
2023-02-22T12:16:56.651Z,33.63
2023-02-22T12:19:38.113Z,26.42
2023-02-22T12:22:21.661Z,27.08
2023-02-22T12:25:09.384Z,26.17
2023-02-22T12:27:43.530Z,29.65
2023-02-22T12:30:23.693Z,26.45
2023-02-22T12:32:59.534Z,30.30
2023-02-22T12:35:27.724Z,25.97
2023-02-22T12:38:02.109Z,27.65
2023-02-22T12:40:53.943Z,21.85
2023-02-22T12:43:28.576Z,22.15
2023-02-22T12:46:06.952Z,26.38
2023-02-22T12:48:40.669Z,30.95
2023-02-22T12:51:28.095Z,25.90
2023-02-22T12:54:16.953Z,26.20
2023-02-22T12:57:10.008Z,21.67
2023-02-22T12:59:57.577Z,23.88
2023-02-22T13:02:32.882Z,19.92
2023-02-22T13:05:01.422Z,28.58
2023-02-22T13:07:47.497Z,27.35
2023-02-22T13:10:14.471Z,21.67
2023-02-22T13:13:04.767Z,23.58
2023-02-22T13:15:40.553Z,20.38
2023-02-22T13:18:35.205Z,25.73
2023-02-22T13:21:12.231Z,23.02
2023-02-22T13:24:05.360Z,23.38
2023-02-22T13:26:41.442Z,23.95
2023-02-22T13:29:17.318Z,24.42
2023-02-22T13:32:06.274Z,25.20
2023-02-22T13:34:45.228Z,27.85
2023-02-22T13:37:34.234Z,28.30
2023-02-22T13:40:14.055Z,31.13
2023-02-22T13:43:16.245Z,26.23
2023-02-22T13:46:02.029Z,28.08
2023-02-22T13:48:58.602Z,23.20
2023-02-22T13:51:43.610Z,29.23
2023-02-22T13:54:47.695Z,26.13
2023-02-22T13:57:41.741Z,24.75
2023-02-22T14:00:23.350Z,24.58
2023-02-22T14:03:03.870Z,28.00
2023-02-22T14:05:42.975Z,28.65
2023-02-22T14:08:36.884Z,25.02
2023-02-22T14:11:14.720Z,25.95
2023-02-22T14:13:55.207Z,23.30
2023-02-22T14:16:28.049Z,26.35
2023-02-22T14:19:20.476Z,25.58
2023-02-22T14:22:02.234Z,28.38
2023-02-22T14:24:48.101Z,25.00
2023-02-22T14:27:17.668Z,22.83
2023-02-22T14:29:57.382Z,28.55
2023-02-22T14:32:35.083Z,24.13
2023-02-22T14:35:14.259Z,23.27
2023-02-22T14:37:51.775Z,27.23
2023-02-22T14:40:31.776Z,26.77
2023-02-22T14:43:02.476Z,29.10
2023-02-22T14:45:34.794Z,24.45
2023-02-22T14:48:13.846Z,22.85
2023-02-22T14:50:40.564Z,26.15
2023-02-22T14:53:28.741Z,25.45
2023-02-22T14:56:07.103Z,24.70
2023-02-22T14:58:48.588Z,25.33
2023-02-22T15:01:49.041Z,24.83
2023-02-22T15:04:26.286Z,27.67
2023-02-22T15:06:54.781Z,26.25
2023-02-22T15:09:34.667Z,24.92
2023-02-22T15:12:04.349Z,26.90
2023-02-22T15:14:41.201Z,24.88
2023-02-22T15:17:16.443Z,22.98
2023-02-22T15:19:43.268Z,23.73
2023-02-22T15:22:26.642Z,25.02
2023-02-22T15:25:08.726Z,22.08
2023-02-22T15:27:37.338Z,25.77
2023-02-22T15:30:20.356Z,21.90
2023-02-22T15:33:03.112Z,27.10
2023-02-22T15:35:32.943Z,18.73
2023-02-22T15:38:01.772Z,20.58
2023-02-22T15:40:33.450Z,21.17
2023-02-22T15:43:09.053Z,22.83
2023-02-22T15:45:43.007Z,18.47
2023-02-22T15:48:11.725Z,20.10
2023-02-22T15:50:39.229Z,21.98
2023-02-22T15:53:09.331Z,22.35
2023-02-22T15:55:42.343Z,23.80
2023-02-22T15:58:16.209Z,23.58
2023-02-22T16:00:47.155Z,22.13
2023-02-22T16:03:17.693Z,19.00
2023-02-22T16:05:48.767Z,24.88
2023-02-22T16:08:26.553Z,21.85
2023-02-22T16:11:01.113Z,19.77
2023-02-22T16:13:36.682Z,21.25
2023-02-22T16:16:32.422Z,24.50
2023-02-22T16:19:21.509Z,24.73
2023-02-22T16:22:13.730Z,20.88
2023-02-22T16:24:41.513Z,28.08
2023-02-22T16:27:19.181Z,31.27
2023-02-22T16:30:09.989Z,34.17
2023-02-22T16:32:42.806Z,28.02
2023-02-22T16:35:18.094Z,31.25
2023-02-22T16:37:49.050Z,27.27
2023-02-22T16:40:34.598Z,25.35
2023-02-22T16:43:04.346Z,28.73
2023-02-22T16:45:31.096Z,24.27
2023-02-22T16:47:59.760Z,23.73
2023-02-22T16:50:26.725Z,26.77
2023-02-22T16:52:58.574Z,23.80
2023-02-22T16:55:26.250Z,23.10
2023-02-22T16:58:01.137Z,23.88
2023-02-22T17:00:34.692Z,24.00
2023-02-22T17:03:06.015Z,22.55
2023-02-22T17:05:36.385Z,23.63
2023-02-22T17:08:05.282Z,20.70
2023-02-22T17:10:32.712Z,23.58
2023-02-22T17:13:12.739Z,20.40
2023-02-22T17:15:47.145Z,24.95
2023-02-22T17:18:16.832Z,27.75
2023-02-22T17:20:45.148Z,22.15
2023-02-22T17:23:12.444Z,25.90
2023-02-22T17:25:56.197Z,25.88
2023-02-22T17:28:24.784Z,22.85
2023-02-22T17:30:53.699Z,24.70
2023-02-22T17:33:27.885Z,23.92
2023-02-22T17:35:57.900Z,24.88
2023-02-22T17:38:27.119Z,24.63
2023-02-22T17:40:54.953Z,19.13
2023-02-22T17:43:25.067Z,22.55
2023-02-22T17:45:51.964Z,25.15
2023-02-22T17:48:19.410Z,20.33
2023-02-22T17:50:48.137Z,26.40
2023-02-22T17:53:15.694Z,20.48
2023-02-22T17:55:43.490Z,24.38
2023-02-22T17:58:14.827Z,20.83
2023-02-22T18:00:47.546Z,19.63
2023-02-22T18:03:21.173Z,22.30
2023-02-22T18:05:50.294Z,25.65
2023-02-22T18:08:17.630Z,21.75
2023-02-22T18:10:46.254Z,19.95
2023-02-22T18:13:18.765Z,24.08
2023-02-22T18:15:47.029Z,19.90
2023-02-22T18:18:14.924Z,24.65
2023-02-22T18:20:47.269Z,24.40
2023-02-22T18:23:16.426Z,20.50
2023-02-22T18:26:07.629Z,21.85
2023-02-22T18:28:36.907Z,23.23
2023-02-22T18:31:09.040Z,24.13
2023-02-22T18:33:36.327Z,28.67
2023-02-22T18:36:06.313Z,24.67
2023-02-22T18:38:35.005Z,25.23
2023-02-22T18:41:05.239Z,28.40
2023-02-22T18:43:34.232Z,28.88
2023-02-22T18:46:16.359Z,20.40
2023-02-22T18:48:44.633Z,24.15
2023-02-22T18:51:13.993Z,21.70
2023-02-22T18:53:47.137Z,30.42
2023-02-22T18:56:20.070Z,25.08
2023-02-22T18:58:48.291Z,20.92
2023-02-22T19:01:17.807Z,22.33
2023-02-22T19:03:47.262Z,21.02
2023-02-22T19:06:15.747Z,25.02
2023-02-22T19:08:44.001Z,21.67
2023-02-22T19:11:18.332Z,22.65
2023-02-22T19:13:46.872Z,23.42
2023-02-22T19:16:14.870Z,25.40
2023-02-22T19:18:44.205Z,20.83
2023-02-22T19:21:14.052Z,23.83
2023-02-22T19:23:48.578Z,23.15
2023-02-22T19:26:19.119Z,22.50
2023-02-22T19:28:47.405Z,22.83
2023-02-22T19:31:31.594Z,20.60
2023-02-22T19:34:03.859Z,21.85
2023-02-22T19:36:31.703Z,19.23
2023-02-22T19:39:02.151Z,18.30
2023-02-22T19:41:29.862Z,21.70
2023-02-22T19:43:57.306Z,20.38
2023-02-22T19:46:28.273Z,25.48
2023-02-22T19:48:55.507Z,23.98
2023-02-22T19:51:25.630Z,23.52
2023-02-22T19:53:53.416Z,19.48
2023-02-22T19:56:27.129Z,23.85
2023-02-22T19:58:56.988Z,24.70
2023-02-22T20:01:26.477Z,24.30
2023-02-22T20:03:57.638Z,24.65
2023-02-22T20:06:28.333Z,23.55
2023-02-22T20:08:56.888Z,23.38
2023-02-22T20:11:24.992Z,24.67
2023-02-22T20:13:52.000Z,25.92
2023-02-22T20:16:18.852Z,24.70
2023-02-22T20:18:48.486Z,22.08
2023-02-22T20:21:20.496Z,23.08
2023-02-22T20:23:47.874Z,20.40
2023-02-22T20:26:24.590Z,24.88
2023-02-22T20:31:20.339Z,25.00
2023-02-22T20:33:49.267Z,25.00
2023-02-22T20:36:18.610Z,23.20
2023-02-22T20:38:45.916Z,30.88
2023-02-22T20:41:25.642Z,26.17
2023-02-22T20:43:54.175Z,29.75
2023-02-22T20:46:26.548Z,27.08
2023-02-22T20:49:00.067Z,24.77
2023-02-22T20:51:28.633Z,24.95
2023-02-22T20:53:59.901Z,27.58
2023-02-22T20:56:29.279Z,27.90
2023-02-22T20:58:59.501Z,25.55
2023-02-22T21:01:26.400Z,27.35
2023-02-22T21:03:53.584Z,26.25
2023-02-22T21:06:21.948Z,26.67
2023-02-22T21:08:54.800Z,31.92
2023-02-22T21:11:23.072Z,24.02
2023-02-22T21:13:51.409Z,31.63
2023-02-22T21:16:30.007Z,26.85
2023-02-22T21:18:59.144Z,31.45
2023-02-22T21:21:27.371Z,27.55
2023-02-22T21:23:57.430Z,23.98
2023-02-22T21:26:29.817Z,30.42
2023-02-22T21:29:00.700Z,24.80
2023-02-22T21:31:28.379Z,28.73
2023-02-22T21:33:57.328Z,28.90
2023-02-22T21:36:25.651Z,29.02
2023-02-22T21:38:55.690Z,26.15
2023-02-22T21:41:28.053Z,25.20
2023-02-22T21:43:56.944Z,29.75
2023-02-22T21:46:25.108Z,29.10
2023-02-22T21:48:52.184Z,27.33
2023-02-22T21:51:22.033Z,28.45
2023-02-22T21:53:53.846Z,31.80
2023-02-22T21:56:29.356Z,30.52
2023-02-22T21:59:17.398Z,33.88
2023-02-22T22:01:50.311Z,38.30
2023-02-22T22:04:23.704Z,35.88
2023-02-22T22:06:52.485Z,32.88
2023-02-22T22:09:21.971Z,28.77
2023-02-22T22:12:05.507Z,30.92
2023-02-22T22:14:34.167Z,29.77
2023-02-22T22:17:05.677Z,29.17
2023-02-22T22:19:39.118Z,33.63
2023-02-22T22:22:06.138Z,35.83
2023-02-22T22:24:34.690Z,31.63
2023-02-22T22:27:03.877Z,30.60
2023-02-22T22:29:34.307Z,30.35
2023-02-22T22:32:03.340Z,33.67
2023-02-22T22:34:30.312Z,31.20
2023-02-22T22:36:58.191Z,33.42
2023-02-22T22:39:27.056Z,31.20
2023-02-22T22:41:53.934Z,36.35
2023-02-22T22:44:22.509Z,38.75
2023-02-22T22:46:50.134Z,35.63
2023-02-22T22:49:17.042Z,38.25
2023-02-22T22:51:47.554Z,37.33
2023-02-22T22:54:14.495Z,37.88
2023-02-22T22:56:41.397Z,35.58
2023-02-22T22:59:10.616Z,36.30
2023-02-22T23:01:40.692Z,32.80
2023-02-22T23:04:11.231Z,36.42
2023-02-22T23:06:46.140Z,37.63
2023-02-22T23:09:18.812Z,33.70
2023-02-22T23:11:51.093Z,36.95
2023-02-22T23:14:20.837Z,33.55
2023-02-22T23:16:48.992Z,40.55
2023-02-22T23:19:16.390Z,37.13
2023-02-22T23:21:44.096Z,38.20
2023-02-22T23:24:15.487Z,37.17
2023-02-22T23:26:43.305Z,36.47
2023-02-22T23:29:11.189Z,41.05
2023-02-22T23:31:39.818Z,40.72
2023-02-22T23:34:13.070Z,47.30
2023-02-22T23:37:00.893Z,42.08
2023-02-22T23:39:28.048Z,41.35
2023-02-22T23:41:59.351Z,40.60
2023-02-22T23:44:27.314Z,40.65
2023-02-22T23:46:57.236Z,39.60
2023-02-22T23:49:27.507Z,44.13
2023-02-22T23:51:54.333Z,52.58
2023-02-22T23:54:24.438Z,46.58
2023-02-22T23:56:57.053Z,44.00
2023-02-22T23:59:27.239Z,43.88
